EGUN (RAF Mildenhall)

 RUNWAY INFORMATION
Runway Number 11 Runway Length 9221 ft Runway Width 200 ft
Runway Elevation 27 ft Runway Displaced Threshold 0 ft Runway Surface Concrete
Runway Number 29 Runway Length 9221 ft Runway Width 200 ft
Runway Elevation 33 ft Runway Displaced Threshold 0 ft Runway Surface Concrete

  METAR AND TAF INFORMATION
METAR FOR EGUN
ADDS - METARS form results

(0658 UTC 20 April 2018)
Data provider: http://aviationweather.gov/adds/metars/
 
Forecast for: EGUN (MILDENHALL RAF , GB)
Text: TAF EGUN 200416Z 2004/2110 VRB06KT 9999 FEW050 QNH3009INS
Forecast period: 0400 UTC 20 April 2018 to 0200 UTC 21 April 2018
Forecast type: FROM: standard forecast or significant change
Winds: variable direction winds at 7 MPH (6 knots; 3.1 m/s)
Visibility: 6 or more miles (10+ km)
Clouds: few clouds at 5000 feet AGL
Weather: no significant weather forecast for this period
Forecast for: EGUN (MILDENHALL RAF , GB)
Text: TAF EGUN 200416Z 2004/2110 VRB06KT 9999 FEW050 QNH3009INS
Forecast period: 0400 UTC 20 April 2018 to 0200 UTC 21 April 2018
Forecast type: FROM: standard forecast or significant change
Winds: variable direction winds at 7 MPH (6 knots; 3.1 m/s)
Visibility: 6 or more miles (10+ km)
Clouds: few clouds at 5000 feet AGL
Weather: no significant weather forecast for this period
Forecast for: EGUN (MILDENHALL RAF , GB)
Text: TAF EGUN 200416Z 2004/2110 VRB06KT 9999 FEW050 QNH3009INS
Forecast period: 0200 to 0800 UTC 21 April 2018
Forecast type: BECOMING: Conditions expected to become as follows by 0300 UTC 21 April 2018
Winds: variable direction winds at 7 MPH (6 knots; 3.1 m/s)
Visibility: 5 miles (8 km)
Ceiling: 3000 feet AGL
Clouds: broken clouds at 3000 feet AGL
Weather: BR  (mist)
Forecast for: EGUN (MILDENHALL RAF , GB)
Text: TAF EGUN 200416Z 2004/2110 VRB06KT 9999 FEW050 QNH3009INS
Forecast period: 0200 to 0800 UTC 21 April 2018
Forecast type: BECOMING: Conditions expected to become as follows by 0300 UTC 21 April 2018
Winds: variable direction winds at 7 MPH (6 knots; 3.1 m/s)
Visibility: 5 miles (8 km)
Ceiling: 3000 feet AGL
Clouds: broken clouds at 3000 feet AGL
Weather: BR  (mist)
Forecast for: EGUN (MILDENHALL RAF , GB)
Text: TAF EGUN 200416Z 2004/2110 VRB06KT 9999 FEW050 QNH3009INS
Forecast period: 0800 to 1000 UTC 21 April 2018
Forecast type: BECOMING: Conditions expected to become as follows by 0900 UTC 21 April 2018
Winds: from the SE (140 degrees) at 10 MPH (9 knots; 4.7 m/s)
Visibility: 6 or more miles (10+ km)
Ceiling: 2500 feet AGL
Clouds: broken clouds at 2500 feet AGL
Weather: NSW  (no significant weather)
Forecast for: EGUN (MILDENHALL RAF , GB)
Text: TAF EGUN 200416Z 2004/2110 VRB06KT 9999 FEW050 QNH3009INS
Forecast period: 0800 to 1000 UTC 21 April 2018
Forecast type: BECOMING: Conditions expected to become as follows by 0900 UTC 21 April 2018
Winds: from the SE (140 degrees) at 10 MPH (9 knots; 4.7 m/s)
Visibility: 6 or more miles (10+ km)
Ceiling: 2500 feet AGL
Clouds: broken clouds at 2500 feet AGL
Weather: NSW  (no significant weather)

 AIRPORT FREQUENCIES
Type APP Name LAKENHEATH Frequency 136.5 MHZ
Type ATIS Name ATIS Frequency 37.55 MHZ
Type CAC Name CAC Frequency 27.777 MHZ
Type DEP Name LAKENHEATH Frequency 25.03 MHZ
Type GND Name GND Frequency 121.675 MHZ
Type OPS Name AMC AIRLIF Frequency 131.975 MHZ
Type PMSV Name PMSV METRO Frequency 28.442 MHZ
Type POST Name 100 ARW CO Frequency 31.355 MHZ
Type PTD Name PTD Frequency 131.975 MHZ
Type TWR Name TWR Frequency 122.55 MHZ

 NEARBY NAVIGATION AIDS
Type TACAN Name Mildenhall Frequency 115900 KHZ



Powered by Virtual Airlines Manager